createdAt,value
2023-03-26T00:02:04.511Z,2.13
2023-03-26T00:04:33.785Z,2.50
2023-03-26T00:07:03.240Z,2.00
2023-03-26T00:09:31.286Z,1.92
2023-03-26T00:11:59.430Z,2.47
2023-03-26T00:14:29.257Z,2.50
2023-03-26T00:16:57.388Z,2.60
2023-03-26T00:19:25.376Z,2.90
2023-03-26T00:21:53.696Z,2.60
2023-03-26T00:24:29.460Z,3.10
2023-03-26T00:26:57.665Z,2.88
2023-03-26T00:29:28.022Z,3.30
2023-03-26T00:31:56.086Z,3.08
2023-03-26T00:34:24.884Z,3.70
2023-03-26T00:36:54.673Z,2.67
2023-03-26T00:39:24.493Z,3.00
2023-03-26T00:41:54.664Z,2.88
2023-03-26T00:44:23.228Z,2.78
2023-03-26T00:46:51.475Z,3.42
2023-03-26T00:49:19.515Z,2.85
2023-03-26T00:51:47.702Z,3.15
2023-03-26T00:54:15.772Z,3.10
2023-03-26T00:56:45.345Z,3.25
2023-03-26T00:59:13.799Z,3.40
2023-03-26T01:01:41.917Z,3.17
2023-03-26T01:04:24.336Z,3.33
2023-03-26T01:06:52.636Z,3.38
2023-03-26T01:09:22.441Z,4.18
2023-03-26T01:11:51.929Z,3.20
2023-03-26T01:14:21.395Z,3.30
2023-03-26T01:16:53.021Z,3.33
2023-03-26T01:19:27.168Z,2.97
2023-03-26T01:21:55.689Z,3.35
2023-03-26T01:24:25.399Z,3.53
2023-03-26T01:27:13.472Z,3.20
2023-03-26T01:29:45.088Z,3.35
2023-03-26T01:32:24.732Z,3.25
2023-03-26T01:35:02.877Z,4.38
2023-03-26T01:37:37.510Z,3.90
2023-03-26T01:40:11.888Z,2.75
2023-03-26T01:42:47.265Z,3.28
2023-03-26T01:45:18.964Z,2.70
2023-03-26T01:47:48.220Z,2.53
2023-03-26T01:50:16.682Z,3.00
2023-03-26T01:52:44.732Z,2.95
2023-03-26T01:55:14.587Z,1.98
2023-03-26T01:57:53.456Z,2.80
2023-03-26T02:00:27.511Z,2.50
2023-03-26T02:03:03.471Z,2.80
2023-03-26T02:05:34.542Z,2.30
2023-03-26T02:08:09.636Z,3.28
2023-03-26T02:10:42.694Z,2.58
2023-03-26T02:13:11.183Z,2.85
2023-03-26T02:15:40.088Z,2.50
2023-03-26T02:18:10.861Z,3.10
2023-03-26T02:20:38.960Z,3.08
2023-03-26T02:23:07.795Z,3.40
2023-03-26T02:25:39.798Z,3.00
2023-03-26T02:28:09.260Z,2.85
2023-03-26T02:30:37.826Z,3.00
2023-03-26T02:33:06.454Z,3.42
2023-03-26T02:35:34.692Z,2.70
2023-03-26T02:38:02.874Z,3.05
2023-03-26T02:40:30.950Z,3.00
2023-03-26T02:42:58.967Z,3.20
2023-03-26T02:45:28.256Z,2.95
2023-03-26T02:47:56.331Z,2.58
2023-03-26T02:50:24.528Z,3.45
2023-03-26T02:52:52.498Z,3.25
2023-03-26T02:55:20.500Z,3.60
2023-03-26T02:57:48.571Z,2.75
2023-03-26T03:00:17.208Z,2.67
2023-03-26T03:02:48.255Z,3.15
2023-03-26T03:05:18.073Z,3.20
2023-03-26T03:07:46.406Z,2.67
2023-03-26T03:10:15.596Z,2.92
2023-03-26T03:12:44.630Z,2.90
2023-03-26T03:15:13.941Z,2.75
2023-03-26T03:17:42.028Z,3.33
2023-03-26T03:20:12.387Z,2.92
2023-03-26T03:22:40.755Z,2.65
2023-03-26T03:25:14.282Z,3.15
2023-03-26T03:27:42.967Z,2.83
2023-03-26T03:30:13.453Z,3.13
2023-03-26T03:32:41.768Z,2.80
2023-03-26T03:35:11.417Z,2.30
2023-03-26T03:37:39.346Z,3.00
2023-03-26T03:40:10.236Z,3.30
2023-03-26T03:42:38.649Z,3.88
2023-03-26T03:45:07.694Z,2.80
2023-03-26T03:47:35.922Z,2.95
2023-03-26T03:50:04.288Z,2.53
2023-03-26T03:52:33.933Z,2.70
2023-03-26T03:55:01.988Z,2.90
2023-03-26T03:57:33.528Z,3.30
2023-03-26T04:00:01.551Z,3.10
2023-03-26T04:02:34.811Z,2.55
2023-03-26T04:05:03.744Z,2.97
2023-03-26T04:07:33.861Z,2.35
2023-03-26T04:10:03.173Z,2.33
2023-03-26T04:12:32.256Z,2.80
2023-03-26T04:15:00.333Z,2.85
2023-03-26T04:17:30.438Z,3.05
2023-03-26T04:20:07.036Z,3.20
2023-03-26T04:22:37.181Z,2.95
2023-03-26T04:25:06.034Z,2.67
2023-03-26T04:27:35.463Z,2.92
2023-03-26T04:30:03.915Z,2.97
2023-03-26T04:32:34.393Z,2.83
2023-03-26T04:35:04.120Z,2.22
2023-03-26T04:37:34.458Z,2.60
2023-03-26T04:40:09.568Z,2.55
2023-03-26T04:42:41.654Z,2.72
2023-03-26T04:45:11.317Z,2.58
2023-03-26T04:47:39.707Z,2.80
2023-03-26T04:50:09.821Z,2.58
2023-03-26T04:52:38.605Z,2.10
2023-03-26T04:55:17.006Z,2.58
2023-03-26T04:57:46.557Z,2.53
2023-03-26T05:00:19.018Z,2.20
2023-03-26T05:02:50.062Z,2.83
2023-03-26T05:05:19.038Z,1.95
2023-03-26T05:07:47.118Z,2.10
2023-03-26T05:10:17.193Z,2.53
2023-03-26T05:12:45.158Z,2.60
2023-03-26T05:15:14.286Z,1.95
2023-03-26T05:17:42.830Z,2.00
2023-03-26T05:20:18.329Z,1.35
2023-03-26T05:22:46.408Z,1.50
2023-03-26T05:25:14.411Z,1.30
2023-03-26T05:27:43.948Z,1.58
2023-03-26T05:30:15.117Z,2.20
2023-03-26T05:32:43.546Z,1.70
2023-03-26T05:35:12.597Z,2.17
2023-03-26T05:37:40.649Z,1.60
2023-03-26T05:40:12.149Z,1.58
2023-03-26T05:42:40.728Z,1.60
2023-03-26T05:45:12.242Z,1.02
2023-03-26T05:47:40.672Z,1.50
2023-03-26T05:50:09.926Z,1.30
2023-03-26T05:52:38.305Z,1.50
2023-03-26T05:55:08.176Z,1.58
2023-03-26T05:57:36.671Z,1.20
2023-03-26T06:00:07.783Z,1.10
2023-03-26T06:02:37.496Z,1.30
2023-03-26T06:05:06.245Z,1.67
2023-03-26T06:07:35.178Z,1.40
2023-03-26T06:10:03.292Z,1.40
2023-03-26T06:12:31.266Z,1.58
2023-03-26T06:14:59.412Z,1.95
2023-03-26T06:17:27.601Z,1.58
2023-03-26T06:19:57.046Z,1.60
2023-03-26T06:22:27.497Z,1.70
2023-03-26T06:24:56.247Z,1.60
2023-03-26T06:27:24.225Z,1.80
2023-03-26T06:29:52.597Z,1.38
2023-03-26T06:32:20.864Z,1.33
2023-03-26T06:34:49.136Z,1.27
2023-03-26T06:37:18.689Z,1.20
2023-03-26T06:39:46.947Z,1.23
2023-03-26T06:42:15.684Z,1.20
2023-03-26T06:44:43.708Z,1.17
2023-03-26T06:47:11.634Z,1.05
2023-03-26T06:49:39.704Z,1.10
2023-03-26T06:52:07.661Z,1.00
2023-03-26T06:54:37.013Z,1.00
2023-03-26T06:57:05.321Z,1.05
2023-03-26T06:59:33.475Z,1.15
2023-03-26T07:02:01.648Z,0.88
2023-03-26T07:04:30.061Z,1.38
2023-03-26T07:06:58.070Z,0.98
2023-03-26T07:09:30.273Z,1.38
2023-03-26T07:11:59.935Z,1.20
2023-03-26T07:14:30.491Z,1.45
2023-03-26T07:16:58.821Z,1.40
2023-03-26T07:19:27.356Z,0.90
2023-03-26T07:21:56.150Z,1.27
2023-03-26T07:24:24.936Z,0.90
2023-03-26T07:26:57.930Z,1.00
2023-03-26T07:29:35.231Z,1.02
2023-03-26T07:34:52.000Z,0.98
2023-03-26T07:37:34.120Z,0.93
2023-03-26T07:40:04.939Z,1.50
2023-03-26T07:42:43.988Z,1.08
2023-03-26T07:45:19.854Z,1.52
2023-03-26T07:47:49.487Z,1.40
2023-03-26T07:50:20.180Z,1.10
2023-03-26T07:52:48.759Z,1.20
2023-03-26T07:55:17.933Z,1.20
2023-03-26T07:57:52.179Z,1.30
2023-03-26T08:00:23.627Z,1.48
2023-03-26T08:03:15.202Z,1.17
2023-03-26T08:05:44.972Z,1.23
2023-03-26T08:08:18.352Z,1.70
2023-03-26T08:11:01.277Z,1.35
2023-03-26T08:13:36.056Z,1.42
2023-03-26T08:16:09.196Z,1.15
2023-03-26T08:18:45.061Z,1.20
2023-03-26T08:21:17.002Z,1.25
2023-03-26T08:23:53.936Z,1.20
2023-03-26T08:26:30.640Z,1.25
2023-03-26T08:29:05.019Z,1.15
2023-03-26T08:31:36.359Z,1.60
2023-03-26T08:34:04.527Z,1.10
2023-03-26T08:36:33.095Z,1.08
2023-03-26T08:39:01.282Z,1.23
2023-03-26T08:42:08.111Z,1.20
2023-03-26T08:45:15.055Z,1.42
2023-03-26T08:48:06.377Z,1.30
2023-03-26T08:51:18.425Z,1.40
2023-03-26T08:54:29.200Z,1.10
2023-03-26T08:57:08.599Z,1.30
2023-03-26T09:00:12.636Z,1.88
2023-03-26T09:02:53.443Z,1.50
2023-03-26T09:05:56.973Z,1.60
2023-03-26T09:08:53.969Z,1.42
2023-03-26T09:12:04.225Z,1.60
2023-03-26T09:15:06.808Z,1.67
2023-03-26T09:18:08.827Z,1.63
2023-03-26T09:21:13.101Z,1.73
2023-03-26T09:24:10.041Z,1.17
2023-03-26T09:26:50.672Z,1.48
2023-03-26T09:29:55.085Z,1.85
2023-03-26T09:32:59.255Z,1.30
2023-03-26T09:35:57.550Z,1.52
2023-03-26T09:38:43.580Z,1.10
2023-03-26T09:41:17.368Z,1.23
2023-03-26T09:44:11.544Z,1.70
2023-03-26T09:46:47.185Z,1.48
2023-03-26T09:49:31.676Z,1.55
2023-03-26T09:52:13.954Z,1.40
2023-03-26T09:55:01.259Z,1.33
2023-03-26T09:57:42.369Z,1.45
2023-03-26T10:00:29.106Z,1.25
2023-03-26T10:03:22.528Z,1.60
2023-03-26T10:05:59.131Z,1.20
2023-03-26T10:08:36.782Z,1.38
2023-03-26T10:11:10.468Z,1.20
2023-03-26T10:13:48.641Z,1.55
2023-03-26T10:16:23.735Z,1.52
2023-03-26T10:19:02.823Z,1.30
2023-03-26T10:21:38.910Z,1.48
2023-03-26T10:24:15.064Z,1.33
2023-03-26T10:27:08.589Z,1.65
2023-03-26T10:29:59.096Z,1.17
2023-03-26T10:32:31.541Z,1.05
2023-03-26T10:35:09.874Z,1.10
2023-03-26T10:37:51.584Z,1.02
2023-03-26T10:40:24.754Z,1.48
2023-03-26T10:43:33.182Z,1.30
2023-03-26T10:46:29.369Z,1.10
2023-03-26T10:49:08.925Z,1.05
2023-03-26T10:51:50.444Z,1.20
2023-03-26T10:54:28.123Z,1.10
2023-03-26T10:56:56.947Z,1.35
2023-03-26T10:59:27.377Z,0.85
2023-03-26T11:02:06.017Z,1.10
2023-03-26T11:04:40.280Z,1.00
2023-03-26T11:07:16.533Z,1.40
2023-03-26T11:09:49.339Z,1.23
2023-03-26T11:12:25.501Z,1.13
2023-03-26T11:15:00.513Z,1.17
2023-03-26T11:17:41.618Z,1.13
2023-03-26T11:20:14.763Z,1.13
2023-03-26T11:22:51.843Z,1.20
2023-03-26T11:25:51.358Z,1.15
2023-03-26T11:28:28.886Z,1.15
2023-03-26T11:31:01.359Z,1.10
2023-03-26T11:33:33.849Z,1.05
2023-03-26T11:36:04.320Z,1.30
2023-03-26T11:38:37.354Z,1.00
2023-03-26T11:41:12.998Z,1.17
2023-03-26T11:43:41.398Z,1.40
2023-03-26T11:46:13.016Z,1.27
2023-03-26T11:48:44.442Z,1.60
2023-03-26T11:51:16.273Z,1.95
2023-03-26T11:53:46.653Z,1.70
2023-03-26T11:56:27.101Z,1.90
2023-03-26T11:58:58.108Z,1.80
2023-03-26T12:01:30.281Z,2.20
2023-03-26T12:04:07.161Z,2.40
2023-03-26T12:06:35.095Z,1.80
2023-03-26T12:09:03.958Z,1.90
2023-03-26T12:11:35.411Z,1.90
2023-03-26T12:14:05.501Z,1.92
2023-03-26T12:16:36.059Z,1.50
2023-03-26T12:19:08.126Z,1.38
2023-03-26T12:21:46.964Z,1.98
2023-03-26T12:24:28.048Z,2.38
2023-03-26T12:26:58.505Z,2.50
2023-03-26T12:29:27.809Z,2.20
2023-03-26T12:31:57.903Z,1.92
2023-03-26T12:34:34.873Z,1.80
2023-03-26T12:37:03.762Z,2.08
2023-03-26T12:40:07.770Z,2.40
2023-03-26T12:44:46.870Z,2.60
2023-03-26T12:45:22.778Z,1.40
2023-03-26T12:48:01.350Z,1.40
2023-03-26T12:50:45.641Z,1.52
2023-03-26T12:53:23.942Z,1.70
2023-03-26T12:55:57.196Z,1.58
2023-03-26T12:58:45.146Z,1.38
2023-03-26T13:01:17.744Z,1.85
2023-03-26T13:04:17.563Z,1.73
2023-03-26T13:07:02.102Z,1.60
2023-03-26T13:09:58.567Z,1.33
2023-03-26T13:12:35.516Z,1.15
2023-03-26T13:15:25.004Z,1.20
2023-03-26T13:18:08.371Z,1.30
2023-03-26T13:20:50.057Z,1.25
2023-03-26T13:23:27.831Z,1.20
2023-03-26T13:26:03.100Z,1.33
2023-03-26T13:28:35.927Z,1.40
2023-03-26T13:31:10.521Z,1.75
2023-03-26T13:33:47.426Z,1.92
2023-03-26T13:36:23.798Z,2.17
2023-03-26T13:39:07.614Z,2.47
2023-03-26T13:41:47.205Z,2.55
2023-03-26T13:44:23.090Z,2.30
2023-03-26T13:46:53.076Z,2.63
2023-03-26T13:49:33.099Z,3.22
2023-03-26T13:52:04.482Z,1.73
2023-03-26T13:54:36.710Z,1.60
2023-03-26T13:57:08.789Z,1.70
2023-03-26T13:59:39.795Z,1.85
2023-03-26T14:02:11.956Z,2.00
2023-03-26T14:04:41.760Z,1.65
2023-03-26T14:07:15.722Z,1.50
2023-03-26T14:09:48.708Z,1.33
2023-03-26T14:12:37.790Z,1.10
2023-03-26T14:15:06.993Z,1.20
2023-03-26T14:17:39.647Z,1.10
2023-03-26T14:20:44.679Z,0.90
2023-03-26T14:23:32.245Z,0.90
2023-03-26T14:26:19.742Z,1.48
2023-03-26T14:29:16.625Z,1.17
2023-03-26T14:31:50.967Z,1.38
2023-03-26T14:34:29.261Z,1.35
2023-03-26T14:37:27.948Z,1.38
2023-03-26T14:40:21.019Z,1.38
2023-03-26T14:42:56.641Z,1.40
2023-03-26T14:45:37.686Z,1.85
2023-03-26T14:48:44.060Z,2.22
2023-03-26T14:51:20.787Z,4.22
2023-03-26T14:53:51.589Z,3.53
2023-03-26T14:56:44.637Z,3.25
2023-03-26T14:59:48.339Z,3.10
2023-03-26T15:02:46.430Z,2.78
2023-03-26T15:05:52.074Z,3.40
2023-03-26T15:08:48.619Z,2.60
2023-03-26T15:11:25.536Z,2.88
2023-03-26T15:14:03.193Z,3.40
2023-03-26T15:17:08.268Z,3.05
2023-03-26T15:19:55.139Z,3.60
2023-03-26T15:22:41.465Z,3.38
2023-03-26T15:25:42.707Z,3.35
2023-03-26T15:28:35.990Z,4.25
2023-03-26T15:31:16.585Z,3.75
2023-03-26T15:34:14.040Z,4.43
2023-03-26T15:37:34.264Z,4.35
2023-03-26T15:40:18.958Z,4.93
2023-03-26T15:42:54.478Z,4.45
2023-03-26T15:45:33.356Z,5.53
2023-03-26T15:48:13.891Z,6.05
2023-03-26T15:50:49.495Z,7.20
2023-03-26T15:53:25.248Z,6.50
2023-03-26T15:56:12.567Z,5.93
2023-03-26T15:58:47.883Z,7.95
2023-03-26T16:01:34.821Z,6.30
2023-03-26T16:04:12.820Z,6.93
2023-03-26T16:06:53.996Z,7.00
2023-03-26T16:09:34.479Z,5.90
2023-03-26T16:12:28.426Z,5.25
2023-03-26T16:15:29.371Z,5.88
2023-03-26T16:18:22.638Z,5.53
2023-03-26T16:20:54.086Z,5.18
2023-03-26T16:23:29.314Z,5.45
2023-03-26T16:26:13.630Z,4.43
2023-03-26T16:29:19.102Z,4.70
2023-03-26T16:32:07.052Z,5.07
2023-03-26T16:34:42.078Z,5.25
2023-03-26T16:37:36.433Z,5.82
2023-03-26T16:40:29.004Z,6.38
2023-03-26T16:43:03.238Z,5.55
2023-03-26T16:45:37.136Z,5.50
2023-03-26T16:48:11.708Z,4.97
2023-03-26T16:50:44.847Z,4.40
2023-03-26T16:53:25.097Z,3.60
2023-03-26T16:55:56.290Z,3.30
2023-03-26T16:58:31.780Z,3.40
2023-03-26T17:01:09.522Z,2.35
2023-03-26T17:03:46.334Z,2.85
2023-03-26T17:06:24.734Z,3.00
2023-03-26T17:08:59.232Z,3.05
2023-03-26T17:11:32.285Z,2.40
2023-03-26T17:14:07.878Z,2.90
2023-03-26T17:16:42.485Z,3.45
2023-03-26T17:19:20.582Z,3.42
2023-03-26T17:21:55.524Z,3.42
2023-03-26T17:24:41.094Z,2.53
2023-03-26T17:27:21.470Z,3.03
2023-03-26T17:30:03.497Z,2.53
2023-03-26T17:32:58.931Z,3.35
2023-03-26T17:35:38.180Z,3.05
2023-03-26T17:38:45.224Z,3.55
2023-03-26T17:41:16.433Z,3.05
2023-03-26T17:43:46.602Z,2.72
2023-03-26T17:46:31.810Z,3.28
2023-03-26T17:49:06.160Z,3.25
2023-03-26T17:51:50.505Z,3.10
2023-03-26T17:54:23.615Z,2.88
2023-03-26T17:56:52.713Z,3.13
2023-03-26T17:59:23.563Z,2.88
2023-03-26T18:01:59.085Z,2.50
2023-03-26T18:04:32.381Z,3.15
2023-03-26T18:07:40.076Z,2.22
2023-03-26T18:10:27.748Z,3.42
2023-03-26T18:13:17.434Z,2.15
2023-03-26T18:15:50.711Z,2.38
2023-03-26T18:18:21.492Z,2.30
2023-03-26T18:20:52.438Z,2.33
2023-03-26T18:23:24.436Z,2.38
2023-03-26T18:25:57.601Z,2.38
2023-03-26T18:28:32.817Z,2.53
2023-03-26T18:31:10.388Z,3.03
2023-03-26T18:33:45.504Z,2.50
2023-03-26T18:36:16.423Z,2.78
2023-03-26T18:38:44.362Z,2.20
2023-03-26T18:41:18.572Z,2.40
2023-03-26T18:43:46.575Z,2.55
2023-03-26T18:46:14.959Z,2.97
2023-03-26T18:48:43.104Z,2.45
2023-03-26T18:51:11.347Z,3.03
2023-03-26T18:53:47.569Z,2.40
2023-03-26T18:56:29.017Z,2.40
2023-03-26T18:58:58.742Z,2.10
2023-03-26T19:01:30.777Z,2.80
2023-03-26T19:04:02.151Z,2.58
2023-03-26T19:06:30.531Z,2.55
2023-03-26T19:08:59.984Z,2.28
2023-03-26T19:11:28.727Z,2.83
2023-03-26T19:14:04.050Z,3.03
2023-03-26T19:16:36.525Z,2.60
2023-03-26T19:19:06.921Z,2.50
2023-03-26T19:21:35.882Z,2.67
2023-03-26T19:24:06.016Z,2.45
2023-03-26T19:26:34.090Z,2.30
2023-03-26T19:29:02.066Z,2.22
2023-03-26T19:31:34.469Z,2.15
2023-03-26T19:34:04.942Z,2.67
2023-03-26T19:36:34.615Z,2.45
2023-03-26T19:39:13.025Z,2.38
2023-03-26T19:41:42.417Z,2.20
2023-03-26T19:44:20.523Z,2.17
2023-03-26T19:46:53.618Z,1.83
2023-03-26T19:49:31.012Z,1.70
2023-03-26T19:52:10.908Z,1.83
2023-03-26T19:55:00.065Z,1.70
2023-03-26T19:57:30.131Z,1.60
2023-03-26T19:59:58.431Z,1.98
2023-03-26T20:02:26.762Z,2.17
2023-03-26T20:04:54.857Z,1.70
2023-03-26T20:07:35.277Z,1.50
2023-03-26T20:10:08.210Z,1.52
2023-03-26T20:12:36.151Z,1.88
2023-03-26T20:15:19.280Z,1.50
2023-03-26T20:17:50.167Z,1.40
2023-03-26T20:20:18.526Z,1.50
2023-03-26T20:22:47.012Z,1.73
2023-03-26T20:25:20.450Z,1.38
2023-03-26T20:27:48.934Z,1.70
2023-03-26T20:30:22.374Z,1.65
2023-03-26T20:33:12.849Z,1.13
2023-03-26T20:35:42.794Z,1.38
2023-03-26T20:38:10.726Z,1.60
2023-03-26T20:40:40.433Z,1.17
2023-03-26T20:43:12.877Z,1.23
2023-03-26T20:45:41.116Z,1.33
2023-03-26T20:48:10.286Z,1.90
2023-03-26T20:50:49.955Z,1.27
2023-03-26T20:53:20.373Z,1.00
2023-03-26T20:55:51.430Z,1.13
2023-03-26T20:58:30.683Z,1.55
2023-03-26T21:01:01.674Z,1.52
2023-03-26T21:03:29.761Z,1.55
2023-03-26T21:06:01.018Z,1.42
2023-03-26T21:08:35.263Z,1.23
2023-03-26T21:11:06.660Z,1.02
2023-03-26T21:13:38.612Z,1.30
2023-03-26T21:16:08.081Z,1.65
2023-03-26T21:18:36.878Z,1.20
2023-03-26T21:21:21.982Z,1.30
2023-03-26T21:23:59.204Z,1.15
2023-03-26T21:26:31.997Z,1.30
2023-03-26T21:29:01.014Z,1.75
2023-03-26T21:31:30.941Z,1.38
2023-03-26T21:33:59.604Z,1.30
2023-03-26T21:36:28.281Z,1.63
2023-03-26T21:38:56.692Z,2.63
2023-03-26T21:41:36.087Z,1.67
2023-03-26T21:44:04.305Z,1.50
2023-03-26T21:46:32.907Z,1.25
2023-03-26T21:49:01.504Z,1.60
2023-03-26T21:51:29.936Z,1.73
2023-03-26T21:53:59.576Z,1.20
2023-03-26T21:56:40.070Z,1.60
2023-03-26T21:59:13.363Z,1.50
2023-03-26T22:01:46.084Z,1.50
2023-03-26T22:04:17.145Z,1.33
2023-03-26T22:06:47.328Z,1.30
2023-03-26T22:09:18.520Z,1.00
2023-03-26T22:11:50.032Z,1.50
2023-03-26T22:14:17.896Z,1.20
2023-03-26T22:16:45.800Z,1.48
2023-03-26T22:19:13.745Z,1.10
2023-03-26T22:21:41.687Z,2.08
2023-03-26T22:24:09.867Z,1.42
2023-03-26T22:26:38.466Z,1.20
2023-03-26T22:29:08.164Z,1.40
2023-03-26T22:31:38.615Z,1.10
2023-03-26T22:34:06.691Z,1.50
2023-03-26T22:36:35.193Z,1.30
2023-03-26T22:39:04.224Z,1.02
2023-03-26T22:41:32.335Z,1.85
2023-03-26T22:44:09.335Z,1.40
2023-03-26T22:46:49.432Z,1.13
2023-03-26T22:49:17.907Z,1.30
2023-03-26T22:51:45.806Z,1.60
2023-03-26T22:54:14.576Z,1.65
2023-03-26T22:56:43.586Z,1.17
2023-03-26T22:59:11.522Z,1.20
2023-03-26T23:01:39.472Z,1.52
2023-03-26T23:04:08.800Z,1.30
2023-03-26T23:06:36.912Z,1.23
2023-03-26T23:09:07.116Z,1.48
2023-03-26T23:11:35.158Z,1.85
2023-03-26T23:14:03.051Z,1.67
2023-03-26T23:16:31.791Z,1.75
2023-03-26T23:18:59.802Z,1.45
2023-03-26T23:21:29.138Z,1.67
2023-03-26T23:23:57.058Z,1.40
2023-03-26T23:26:26.099Z,1.60
2023-03-26T23:28:54.084Z,1.67
2023-03-26T23:31:22.120Z,1.30
2023-03-26T23:33:50.416Z,1.45
2023-03-26T23:36:19.570Z,1.58
2023-03-26T23:38:49.375Z,1.15
2023-03-26T23:41:18.735Z,1.23
2023-03-26T23:43:53.989Z,1.35
2023-03-26T23:46:23.991Z,1.00
2023-03-26T23:48:52.261Z,1.60
2023-03-26T23:51:21.006Z,1.48
2023-03-26T23:53:50.376Z,1.30
2023-03-26T23:56:19.010Z,1.35
2023-03-26T23:58:47.722Z,1.10
